createdAt,value
2023-05-21T00:00:12.054Z,17.20
2023-05-21T00:02:40.076Z,17.20
2023-05-21T00:05:14.387Z,17.10
2023-05-21T00:07:41.718Z,17.10
2023-05-21T00:10:08.912Z,17.00
2023-05-21T00:12:35.886Z,17.00
2023-05-21T00:15:02.777Z,17.00
2023-05-21T00:17:29.837Z,17.00
2023-05-21T00:19:59.997Z,16.90
2023-05-21T00:22:26.839Z,16.90
2023-05-21T00:24:53.754Z,16.90
2023-05-21T00:27:20.888Z,16.90
2023-05-21T00:29:47.717Z,16.90
2023-05-21T00:32:14.832Z,16.90
2023-05-21T00:34:42.287Z,16.80
2023-05-21T00:37:10.120Z,16.80
2023-05-21T00:39:37.137Z,16.80
2023-05-21T00:42:04.199Z,16.80
2023-05-21T00:44:34.408Z,16.80
2023-05-21T00:47:02.289Z,16.80
2023-05-21T00:49:30.618Z,16.70
2023-05-21T00:51:57.700Z,16.70
2023-05-21T00:54:24.989Z,16.70
2023-05-21T00:56:52.583Z,16.70
2023-05-21T00:59:19.558Z,16.70
2023-05-21T01:01:46.641Z,16.60
2023-05-21T01:09:44.492Z,16.60
2023-05-21T01:12:13.287Z,16.60
2023-05-21T01:14:41.102Z,16.60
2023-05-21T01:17:10.628Z,16.60
2023-05-21T01:19:37.856Z,16.60
2023-05-21T01:22:07.446Z,16.50
2023-05-21T01:24:35.314Z,16.50
2023-05-21T01:27:03.186Z,16.50
2023-05-21T01:29:30.274Z,16.50
2023-05-21T01:32:23.832Z,16.40
2023-05-21T01:35:05.477Z,16.40
2023-05-21T01:37:57.482Z,16.40
2023-05-21T01:40:53.471Z,16.40
2023-05-21T01:43:20.972Z,16.40
2023-05-21T01:45:49.143Z,16.30
2023-05-21T01:48:17.538Z,16.40
2023-05-21T01:50:45.987Z,16.40
2023-05-21T01:53:12.972Z,16.30
2023-05-21T01:55:42.196Z,16.30
2023-05-21T01:58:10.115Z,16.30
2023-05-21T02:00:37.589Z,16.30
2023-05-21T02:03:04.561Z,16.30
2023-05-21T02:05:31.641Z,16.30
2023-05-21T02:08:00.212Z,16.30
2023-05-21T02:10:27.254Z,16.30
2023-05-21T02:12:54.142Z,16.30
2023-05-21T02:15:21.002Z,16.30
2023-05-21T02:17:48.514Z,16.30
2023-05-21T02:20:15.721Z,16.30
2023-05-21T02:22:44.691Z,16.20
2023-05-21T02:25:13.153Z,16.20
2023-05-21T02:27:42.429Z,16.20
2023-05-21T02:30:13.858Z,16.20
2023-05-21T02:32:43.939Z,16.20
2023-05-21T02:35:12.470Z,16.10
2023-05-21T02:37:44.089Z,16.10
2023-05-21T02:40:11.891Z,16.10
2023-05-21T02:42:41.393Z,16.00
2023-05-21T02:45:09.818Z,16.00
2023-05-21T02:47:37.154Z,16.00
2023-05-21T02:50:06.460Z,16.00
2023-05-21T02:52:33.470Z,16.00
2023-05-21T02:55:00.437Z,16.00
2023-05-21T02:57:27.226Z,15.90
2023-05-21T02:59:54.100Z,16.00
2023-05-21T03:02:21.101Z,15.90
2023-05-21T03:04:48.955Z,15.90
2023-05-21T03:07:19.261Z,15.90
2023-05-21T03:09:47.916Z,15.90
2023-05-21T03:12:14.791Z,15.90
2023-05-21T03:14:46.494Z,15.90
2023-05-21T03:17:17.294Z,15.80
2023-05-21T03:19:44.981Z,15.80
2023-05-21T03:22:12.039Z,15.70
2023-05-21T03:24:39.646Z,15.80
2023-05-21T03:27:06.865Z,15.80
2023-05-21T03:29:34.412Z,15.70
2023-05-21T03:32:02.041Z,15.70
2023-05-21T03:34:31.901Z,15.70
2023-05-21T03:36:58.869Z,15.70
2023-05-21T03:39:25.747Z,15.60
2023-05-21T03:41:52.718Z,15.60
2023-05-21T03:44:19.766Z,15.60
2023-05-21T03:46:46.709Z,15.60
2023-05-21T03:49:14.352Z,15.60
2023-05-21T03:51:41.380Z,15.60
2023-05-21T03:54:08.254Z,15.50
2023-05-21T03:56:35.488Z,15.50
2023-05-21T03:59:02.531Z,15.50
2023-05-21T04:01:29.972Z,15.50
2023-05-21T04:03:56.993Z,15.50
2023-05-21T04:06:25.605Z,15.50
2023-05-21T04:08:52.557Z,15.50
2023-05-21T04:11:19.394Z,15.50
2023-05-21T04:13:46.243Z,15.50
2023-05-21T04:16:15.121Z,15.60
2023-05-21T04:18:44.882Z,15.60
2023-05-21T04:21:12.909Z,15.50
2023-05-21T04:23:40.415Z,15.50
2023-05-21T04:26:08.110Z,15.50
2023-05-21T04:28:35.575Z,15.50
2023-05-21T04:31:03.009Z,15.40
2023-05-21T04:33:30.583Z,15.40
2023-05-21T04:35:57.944Z,15.30
2023-05-21T04:38:26.120Z,15.30
2023-05-21T04:40:53.556Z,15.30
2023-05-21T04:43:26.038Z,15.30
2023-05-21T04:45:55.008Z,15.20
2023-05-21T04:48:25.124Z,15.30
2023-05-21T04:50:57.061Z,15.30
2023-05-21T04:53:36.239Z,15.30
2023-05-21T04:56:03.316Z,15.30
2023-05-21T04:58:30.190Z,15.40
2023-05-21T05:00:58.092Z,15.40
2023-05-21T05:03:25.394Z,15.40
2023-05-21T05:05:54.923Z,15.50
2023-05-21T05:08:22.310Z,15.50
2023-05-21T05:10:49.630Z,15.50
2023-05-21T05:13:17.508Z,15.60
2023-05-21T05:15:44.471Z,15.60
2023-05-21T05:18:12.364Z,15.60
2023-05-21T05:20:42.594Z,15.70
2023-05-21T05:23:13.212Z,15.70
2023-05-21T05:25:40.226Z,15.70
2023-05-21T05:28:07.212Z,15.80
2023-05-21T05:30:34.425Z,15.80
2023-05-21T05:33:01.616Z,15.80
2023-05-21T05:35:28.630Z,15.90
2023-05-21T05:37:56.075Z,15.90
2023-05-21T05:40:23.020Z,15.90
2023-05-21T05:42:52.862Z,15.90
2023-05-21T05:45:21.339Z,16.00
2023-05-21T05:47:48.334Z,16.00
2023-05-21T05:50:15.730Z,16.00
2023-05-21T05:52:42.815Z,16.10
2023-05-21T05:55:12.430Z,16.10
2023-05-21T05:57:39.316Z,16.20
2023-05-21T06:00:07.209Z,16.20
2023-05-21T06:02:34.296Z,16.20
2023-05-21T06:05:01.503Z,16.30
2023-05-21T06:07:28.592Z,16.30
2023-05-21T06:09:55.743Z,16.40
2023-05-21T06:12:22.667Z,16.50
2023-05-21T06:14:49.689Z,16.50
2023-05-21T06:17:16.620Z,16.50
2023-05-21T06:19:45.598Z,16.60
2023-05-21T06:22:12.499Z,16.70
2023-05-21T06:24:39.569Z,16.80
2023-05-21T06:27:06.877Z,17.00
2023-05-21T06:29:33.812Z,17.20
2023-05-21T06:32:01.854Z,17.30
2023-05-21T06:34:31.146Z,17.30
2023-05-21T06:36:58.026Z,17.40
2023-05-21T06:39:25.039Z,17.50
2023-05-21T06:41:51.948Z,17.70
2023-05-21T06:44:18.860Z,17.80
2023-05-21T06:46:45.903Z,17.90
2023-05-21T06:49:14.473Z,18.20
2023-05-21T06:51:41.618Z,18.60
2023-05-21T06:54:08.507Z,18.80
2023-05-21T06:56:35.416Z,18.70
2023-05-21T06:59:02.352Z,18.60
2023-05-21T07:01:29.473Z,18.50
2023-05-21T07:04:09.929Z,18.50
2023-05-21T07:06:38.029Z,18.50
2023-05-21T07:09:06.195Z,18.70
2023-05-21T07:11:33.648Z,18.80
2023-05-21T07:14:01.784Z,19.00
2023-05-21T07:16:28.795Z,19.20
2023-05-21T07:18:56.000Z,19.30
2023-05-21T07:21:22.833Z,19.30
2023-05-21T07:23:49.746Z,19.20
2023-05-21T07:26:16.925Z,19.20
2023-05-21T07:28:43.999Z,19.20
2023-05-21T07:31:12.417Z,19.30
2023-05-21T07:33:40.477Z,19.40
2023-05-21T07:36:17.135Z,19.40
2023-05-21T07:38:44.953Z,19.40
2023-05-21T07:41:12.058Z,19.30
2023-05-21T07:43:39.027Z,19.30
2023-05-21T07:46:06.968Z,19.30
2023-05-21T07:48:35.424Z,19.30
2023-05-21T07:51:03.979Z,19.40
2023-05-21T07:53:32.427Z,19.60
2023-05-21T07:56:00.916Z,19.80
2023-05-21T07:58:27.979Z,19.90
2023-05-21T08:00:55.083Z,20.10
2023-05-21T08:03:22.097Z,20.20
2023-05-21T08:05:49.299Z,20.40
2023-05-21T08:08:17.397Z,20.60
2023-05-21T08:10:44.904Z,20.80
2023-05-21T08:13:16.760Z,20.90
2023-05-21T08:15:44.301Z,21.00
2023-05-21T08:18:12.144Z,21.10
2023-05-21T08:20:39.375Z,21.40
2023-05-21T08:23:06.221Z,21.70
2023-05-21T08:25:33.054Z,21.80
2023-05-21T08:28:00.157Z,22.00
2023-05-21T08:30:27.069Z,22.30
2023-05-21T08:32:55.158Z,22.80
2023-05-21T08:35:22.374Z,22.80
2023-05-21T08:37:49.448Z,22.80
2023-05-21T08:40:16.545Z,22.90
2023-05-21T08:42:45.148Z,23.20
2023-05-21T08:45:17.007Z,23.40
2023-05-21T08:47:44.860Z,23.40
2023-05-21T08:50:14.097Z,23.30
2023-05-21T08:52:42.058Z,23.30
2023-05-21T08:55:12.911Z,23.30
2023-05-21T08:57:44.124Z,23.40
2023-05-21T09:00:12.235Z,23.20
2023-05-21T09:02:41.007Z,23.10
2023-05-21T09:05:09.845Z,23.00
2023-05-21T09:07:52.280Z,23.10
2023-05-21T09:10:25.462Z,23.10
2023-05-21T09:12:52.683Z,23.20
2023-05-21T09:15:35.112Z,23.40
2023-05-21T09:18:02.294Z,23.70
2023-05-21T09:20:30.499Z,24.20
2023-05-21T09:22:57.800Z,24.70
2023-05-21T09:25:29.577Z,25.20
2023-05-21T09:27:57.153Z,25.60
2023-05-21T09:30:26.719Z,26.10
2023-05-21T09:32:59.600Z,26.50
2023-05-21T09:35:27.136Z,26.50
2023-05-21T09:37:57.617Z,26.40
2023-05-21T09:40:37.162Z,26.50
2023-05-21T09:43:06.134Z,26.50
2023-05-21T09:45:35.001Z,26.50
2023-05-21T09:48:02.106Z,26.60
2023-05-21T09:50:42.705Z,26.90
2023-05-21T09:53:15.951Z,27.20
2023-05-21T09:55:44.096Z,27.80
2023-05-21T09:58:11.293Z,28.40
2023-05-21T10:00:39.037Z,29.00
2023-05-21T10:03:13.217Z,29.40
2023-05-21T10:05:42.357Z,29.80
2023-05-21T10:08:30.414Z,30.10
2023-05-21T10:10:57.428Z,30.40
2023-05-21T10:13:24.875Z,30.60
2023-05-21T10:16:01.225Z,31.10
2023-05-21T10:18:31.419Z,31.80
2023-05-21T10:21:00.922Z,32.30
2023-05-21T10:23:29.177Z,32.60
2023-05-21T10:25:59.667Z,32.90
2023-05-21T10:28:28.313Z,33.10
2023-05-21T10:30:56.883Z,33.20
2023-05-21T10:33:25.781Z,33.50
2023-05-21T10:35:54.888Z,33.80
2023-05-21T10:38:21.810Z,33.90
2023-05-21T10:40:50.006Z,34.10
2023-05-21T10:43:19.908Z,34.20
2023-05-21T10:46:09.250Z,34.10
2023-05-21T10:48:58.142Z,33.80
2023-05-21T10:52:01.592Z,33.60
2023-05-21T10:54:50.894Z,33.50
2023-05-21T10:57:38.103Z,33.80
2023-05-21T11:00:08.342Z,33.90
2023-05-21T11:02:35.666Z,34.50
2023-05-21T11:05:04.521Z,34.70
2023-05-21T11:07:56.392Z,33.80
2023-05-21T11:10:44.661Z,32.40
2023-05-21T11:13:14.407Z,31.40
2023-05-21T11:16:10.850Z,30.90
2023-05-21T11:18:38.122Z,30.60
2023-05-21T11:21:12.568Z,30.60
2023-05-21T11:23:51.965Z,30.40
2023-05-21T11:26:21.777Z,30.60
2023-05-21T11:29:44.744Z,30.70
2023-05-21T11:34:47.308Z,30.00
2023-05-21T11:37:29.118Z,30.70
2023-05-21T11:39:57.691Z,31.70
2023-05-21T11:42:36.724Z,32.00
2023-05-21T11:45:04.870Z,31.80
2023-05-21T11:47:37.136Z,32.60
2023-05-21T11:50:14.655Z,33.50
2023-05-21T11:52:42.962Z,34.00
2023-05-21T11:55:12.954Z,34.10
2023-05-21T11:57:43.169Z,34.20
2023-05-21T12:00:16.070Z,34.40
2023-05-21T12:02:51.542Z,34.30
2023-05-21T12:05:18.789Z,34.60
2023-05-21T12:07:52.556Z,34.80
2023-05-21T12:10:23.523Z,35.10
2023-05-21T12:12:55.438Z,35.30
2023-05-21T12:15:24.801Z,35.20
2023-05-21T12:17:53.282Z,35.20
2023-05-21T12:20:21.138Z,35.40
2023-05-21T12:22:49.953Z,35.60
2023-05-21T12:25:23.764Z,35.70
2023-05-21T12:27:57.894Z,35.70
2023-05-21T12:30:27.990Z,35.70
2023-05-21T12:32:58.208Z,35.80
2023-05-21T12:35:25.424Z,35.90
2023-05-21T12:37:52.927Z,35.90
2023-05-21T12:40:20.237Z,35.90
2023-05-21T12:42:47.373Z,35.80
2023-05-21T12:45:16.297Z,35.50
2023-05-21T12:48:19.810Z,35.40
2023-05-21T12:50:46.811Z,35.00
2023-05-21T12:53:36.848Z,34.30
2023-05-21T12:56:15.172Z,33.60
2023-05-21T12:58:43.332Z,32.80
2023-05-21T13:01:12.248Z,32.50
2023-05-21T13:03:42.444Z,32.30
2023-05-21T13:06:09.620Z,32.40
2023-05-21T13:08:36.713Z,32.50
2023-05-21T13:11:04.977Z,32.50
2023-05-21T13:13:31.986Z,32.50
2023-05-21T13:16:01.780Z,32.30
2023-05-21T13:18:28.820Z,31.90
2023-05-21T13:20:56.875Z,31.40
2023-05-21T13:23:23.847Z,31.00
2023-05-21T13:25:50.752Z,30.90
2023-05-21T13:28:17.946Z,30.80
2023-05-21T13:30:44.838Z,30.80
2023-05-21T13:33:24.943Z,30.80
2023-05-21T13:35:52.008Z,31.00
2023-05-21T13:38:19.313Z,31.20
2023-05-21T13:40:46.709Z,31.30
2023-05-21T13:43:19.296Z,31.20
2023-05-21T13:45:49.585Z,31.20
2023-05-21T13:48:17.069Z,31.10
2023-05-21T13:51:08.758Z,31.00
2023-05-21T13:53:35.956Z,30.70
2023-05-21T13:56:02.946Z,30.40
2023-05-21T13:58:34.532Z,30.10
2023-05-21T14:01:03.027Z,29.90
2023-05-21T14:03:32.498Z,29.70
2023-05-21T14:06:04.953Z,29.40
2023-05-21T14:08:34.298Z,29.10
2023-05-21T14:11:03.996Z,28.70
2023-05-21T14:13:32.673Z,28.30
2023-05-21T14:15:59.838Z,27.90
2023-05-21T14:20:56.713Z,27.60
2023-05-21T14:23:23.764Z,27.40
2023-05-21T14:28:46.155Z,27.10
2023-05-21T14:31:13.284Z,26.90
2023-05-21T14:33:40.197Z,26.90
2023-05-21T14:36:07.273Z,26.80
2023-05-21T14:38:34.326Z,26.70
2023-05-21T14:41:01.182Z,26.60
2023-05-21T14:43:28.115Z,26.50
2023-05-21T14:45:55.034Z,26.40
2023-05-21T14:48:24.545Z,26.30
2023-05-21T14:50:51.617Z,26.20
2023-05-21T14:53:19.317Z,26.10
2023-05-21T14:55:47.505Z,25.90
2023-05-21T14:58:17.044Z,25.80
2023-05-21T15:00:44.427Z,25.60
2023-05-21T15:03:13.765Z,25.60
2023-05-21T15:05:40.661Z,25.60
2023-05-21T15:08:09.747Z,25.50
2023-05-21T15:10:36.738Z,25.40
2023-05-21T15:13:03.710Z,25.40
2023-05-21T15:15:37.697Z,25.30
2023-05-21T15:18:04.986Z,25.30
2023-05-21T15:20:32.137Z,25.30
2023-05-21T15:23:12.707Z,25.30
2023-05-21T15:25:43.526Z,25.10
2023-05-21T15:28:14.587Z,25.00
2023-05-21T15:30:41.344Z,24.90
2023-05-21T15:33:08.204Z,24.80
2023-05-21T15:35:36.698Z,24.70
2023-05-21T15:38:04.077Z,24.60
2023-05-21T15:40:32.621Z,24.40
2023-05-21T15:42:59.678Z,24.40
2023-05-21T15:45:26.913Z,24.20
2023-05-21T15:47:54.305Z,24.10
2023-05-21T15:50:21.349Z,24.10
2023-05-21T15:52:53.556Z,24.10
2023-05-21T15:55:21.207Z,24.10
2023-05-21T15:57:48.116Z,24.10
2023-05-21T16:00:15.339Z,24.10
2023-05-21T16:02:43.175Z,24.10
2023-05-21T16:05:10.259Z,24.10
2023-05-21T16:07:38.281Z,23.90
2023-05-21T16:10:07.287Z,23.80
2023-05-21T16:12:34.130Z,23.70
2023-05-21T16:15:01.299Z,23.60
2023-05-21T16:17:29.766Z,23.50
2023-05-21T16:19:56.687Z,23.40
2023-05-21T16:22:24.050Z,23.50
2023-05-21T16:24:50.976Z,23.50
2023-05-21T16:27:18.018Z,23.50
2023-05-21T16:29:44.972Z,23.50
2023-05-21T16:32:14.240Z,23.40
2023-05-21T16:34:41.403Z,23.30
2023-05-21T16:37:09.827Z,23.30
2023-05-21T16:39:37.489Z,23.30
2023-05-21T16:42:04.754Z,23.30
2023-05-21T16:44:32.306Z,23.20
2023-05-21T16:47:00.069Z,23.10
2023-05-21T16:49:27.758Z,23.00
2023-05-21T16:51:54.948Z,23.00
2023-05-21T16:54:22.200Z,22.90
2023-05-21T16:56:49.447Z,22.90
2023-05-21T16:59:16.528Z,22.80
2023-05-21T17:01:43.546Z,22.70
2023-05-21T17:04:11.163Z,22.70
2023-05-21T17:06:38.150Z,22.60
2023-05-21T17:09:05.267Z,22.60
2023-05-21T17:11:32.477Z,22.60
2023-05-21T17:13:59.508Z,22.50
2023-05-21T17:16:26.799Z,22.40
2023-05-21T17:18:53.797Z,22.40
2023-05-21T17:21:20.901Z,22.30
2023-05-21T17:23:47.921Z,22.30
2023-05-21T17:26:14.822Z,22.30
2023-05-21T17:28:41.736Z,22.20
2023-05-21T17:31:10.330Z,22.10
2023-05-21T17:33:38.669Z,22.00
2023-05-21T17:36:06.269Z,22.00
2023-05-21T17:38:34.221Z,21.90
2023-05-21T17:41:02.362Z,21.70
2023-05-21T17:43:32.480Z,21.70
2023-05-21T17:45:59.433Z,21.60
2023-05-21T17:48:26.622Z,21.50
2023-05-21T17:50:54.571Z,21.50
2023-05-21T17:53:23.072Z,21.50
2023-05-21T17:55:50.359Z,21.50
2023-05-21T17:58:18.170Z,21.40
2023-05-21T18:00:46.582Z,21.40
2023-05-21T18:03:13.584Z,21.40
2023-05-21T18:05:43.008Z,21.30
2023-05-21T18:08:12.315Z,21.20
2023-05-21T18:10:39.738Z,20.80
2023-05-21T18:13:06.997Z,20.60
2023-05-21T18:15:37.107Z,20.60
2023-05-21T18:18:08.793Z,20.70
2023-05-21T18:20:36.975Z,20.70
2023-05-21T18:23:04.242Z,20.70
2023-05-21T18:25:31.602Z,20.60
2023-05-21T18:28:00.614Z,20.60
2023-05-21T18:30:27.641Z,20.60
2023-05-21T18:32:54.861Z,20.60
2023-05-21T18:35:31.363Z,20.60
2023-05-21T18:37:58.439Z,20.50
2023-05-21T18:40:30.834Z,20.50
2023-05-21T18:42:59.838Z,20.50
2023-05-21T18:45:28.811Z,20.40
2023-05-21T18:47:56.300Z,20.50
2023-05-21T18:50:27.175Z,20.40
2023-05-21T18:52:57.660Z,20.40
2023-05-21T18:55:24.889Z,20.40
2023-05-21T18:57:52.565Z,20.30
2023-05-21T19:00:30.290Z,20.00
2023-05-21T19:02:57.373Z,19.90
2023-05-21T19:05:24.345Z,19.90
2023-05-21T19:07:52.885Z,19.80
2023-05-21T19:10:19.995Z,19.80
2023-05-21T19:12:47.087Z,19.70
2023-05-21T19:15:14.333Z,19.70
2023-05-21T19:17:41.311Z,19.70
2023-05-21T19:20:09.159Z,19.60
2023-05-21T19:22:37.342Z,19.60
2023-05-21T19:25:04.667Z,19.50
2023-05-21T19:27:31.744Z,19.50
2023-05-21T19:29:58.688Z,19.40
2023-05-21T19:32:26.102Z,19.30
2023-05-21T19:34:53.084Z,19.30
2023-05-21T19:37:20.060Z,19.20
2023-05-21T19:39:50.100Z,19.20
2023-05-21T19:42:17.991Z,19.10
2023-05-21T19:44:45.052Z,19.00
2023-05-21T19:47:11.990Z,19.00
2023-05-21T19:49:38.868Z,18.90
2023-05-21T19:52:06.280Z,18.90
2023-05-21T19:54:33.257Z,18.80
2023-05-21T19:57:00.264Z,18.80
2023-05-21T19:59:27.303Z,18.70
2023-05-21T20:01:54.993Z,18.60
2023-05-21T20:04:21.883Z,18.60
2023-05-21T20:06:48.940Z,18.50
2023-05-21T20:09:16.973Z,18.50
2023-05-21T20:11:44.108Z,18.50
2023-05-21T20:14:11.370Z,18.40
2023-05-21T20:16:38.278Z,18.40
2023-05-21T20:19:05.696Z,18.30
2023-05-21T20:21:33.100Z,18.30
2023-05-21T20:24:00.085Z,18.20
2023-05-21T20:26:27.172Z,18.20
2023-05-21T20:28:54.178Z,18.20
2023-05-21T20:31:23.147Z,18.10
2023-05-21T20:33:50.758Z,18.10
2023-05-21T20:36:17.934Z,18.10
2023-05-21T20:38:48.490Z,18.00
2023-05-21T20:41:15.534Z,18.00
2023-05-21T20:43:45.545Z,18.00
2023-05-21T20:46:12.801Z,18.00
2023-05-21T20:48:42.239Z,18.00
2023-05-21T20:51:09.480Z,18.00
2023-05-21T20:53:37.106Z,17.90
2023-05-21T20:56:08.251Z,17.90
2023-05-21T20:58:35.501Z,17.80
2023-05-21T21:01:02.529Z,17.80
2023-05-21T21:03:30.023Z,17.70
2023-05-21T21:05:58.265Z,17.70
2023-05-21T21:08:28.064Z,17.70
2023-05-21T21:10:55.055Z,17.70
2023-05-21T21:13:21.928Z,17.60
2023-05-21T21:15:49.292Z,17.60
2023-05-21T21:18:16.809Z,17.50
2023-05-21T21:20:48.063Z,17.50
2023-05-21T21:23:15.264Z,17.50
2023-05-21T21:25:42.351Z,17.50
2023-05-21T21:28:10.727Z,17.40
2023-05-21T21:30:41.133Z,17.40
2023-05-21T21:33:08.756Z,17.40
2023-05-21T21:35:36.133Z,17.40
2023-05-21T21:38:05.117Z,17.30
2023-05-21T21:40:32.118Z,17.30
2023-05-21T21:42:59.422Z,17.20
2023-05-21T21:45:26.909Z,17.20
2023-05-21T21:47:54.019Z,17.10
2023-05-21T21:50:21.245Z,17.10
2023-05-21T21:52:48.966Z,17.00
2023-05-21T21:55:16.383Z,17.10
2023-05-21T21:57:46.093Z,17.00
2023-05-21T22:00:26.927Z,17.00
2023-05-21T22:02:54.425Z,16.90
2023-05-21T22:05:21.591Z,16.90
2023-05-21T22:07:48.959Z,16.90
2023-05-21T22:10:17.158Z,16.90
2023-05-21T22:12:44.970Z,16.80
2023-05-21T22:15:19.102Z,16.80
2023-05-21T22:17:48.739Z,16.80
2023-05-21T22:20:17.534Z,16.80
2023-05-21T22:22:46.362Z,16.80
2023-05-21T22:25:13.336Z,16.70
2023-05-21T22:27:40.644Z,16.70
2023-05-21T22:30:08.499Z,16.70
2023-05-21T22:32:35.932Z,16.70
2023-05-21T22:35:10.839Z,16.70
2023-05-21T22:37:38.513Z,16.70
2023-05-21T22:40:09.426Z,16.70
2023-05-21T22:42:36.919Z,16.60
2023-05-21T22:45:04.331Z,16.60
2023-05-21T22:47:32.374Z,16.60
2023-05-21T22:50:01.517Z,16.50
2023-05-21T22:52:29.265Z,16.50
2023-05-21T22:54:57.997Z,16.40
2023-05-21T22:57:25.536Z,16.40
2023-05-21T22:59:52.500Z,16.30
2023-05-21T23:02:19.768Z,16.30
2023-05-21T23:04:49.851Z,16.30
2023-05-21T23:07:16.792Z,16.30
2023-05-21T23:09:43.735Z,16.20
2023-05-21T23:12:11.159Z,16.20
2023-05-21T23:14:38.438Z,16.10
2023-05-21T23:17:06.043Z,16.10
2023-05-21T23:19:37.714Z,16.10
2023-05-21T23:22:05.003Z,16.10
2023-05-21T23:24:35.113Z,16.10
2023-05-21T23:27:03.174Z,16.10
2023-05-21T23:29:32.437Z,16.10
2023-05-21T23:32:01.229Z,16.20
2023-05-21T23:34:28.212Z,16.30
2023-05-21T23:36:55.667Z,16.40
2023-05-21T23:39:23.347Z,16.40
2023-05-21T23:41:50.898Z,16.50
2023-05-21T23:44:24.842Z,16.60
2023-05-21T23:46:51.972Z,16.60
2023-05-21T23:49:19.610Z,16.70
2023-05-21T23:52:01.617Z,16.70
2023-05-21T23:54:31.544Z,16.70
2023-05-21T23:56:58.376Z,16.70
2023-05-21T23:59:25.387Z,16.70
